• Join FlightAware (Why Join?)
  • Login
  • US Flag 
06:51PM EST


 

Airport Tracker/Info


-or-


 

Live Flight TrackerFlight Track Log ✈ CTL17 ✈ 06-May-2013 ✈ KMBS - KYIP

Flight Track Log - Related Links

Times and Time Zones

All times are in EDT time to prevent confusion due to time zone crossing. See the CTL17 flight status page for this flight to view local times or setup timezone preferences in your user account.

Time Position Orientation Groundspeed Altitude Reporting Facility
EDT Latitude Longitude Course Direction KTS MPH feet Rate Location/Type
04:47PM 43.3619 -84.0057 160° South  Level Estimated
04:48PM 43.3366 -83.9838 148° Southeast  Level FlightAware Approximate
04:49PM 43.3080 -83.9718 160° South  Level Estimated
04:50PM 43.2807 -83.9553 156° South  Level FlightAware Approximate
04:51PM 43.2533 -83.9388 156° South  Level FlightAware Approximate
04:52PM 43.2247 -83.9271 163° South  Level Estimated
04:53PM 43.1965 -83.9134 161° South  Level FlightAware Approximate
04:54PM 43.1683 -83.8997 161° South  Level FlightAware Approximate
04:55PM 43.1401 -83.8861 161° South  Level FlightAware Approximate
04:56PM 43.1115 -83.8746 160° South  Level Estimated
04:56PM 42.8831 -83.7708 160° South 173 199 5,000  Level Cleveland Center
04:57PM 43.0835 -83.8603 160° South  Level FlightAware Approximate
04:57PM 42.8339 -83.7403 155° Southeast 169 194 5,000  Level Cleveland Center
04:58PM 43.0555 -83.8461 160° South  Level FlightAware Approximate
04:59PM 43.0275 -83.8318 160° South  Level FlightAware Approximate
04:59PM 42.7428 -83.7100 166° South 173 199 5,000  Level Cleveland Center
05:00PM 42.9995 -83.8176 160° South  Level FlightAware Approximate
05:00PM 42.6933 -83.6936 166° South 173 199 5,000  Level Cleveland Center
05:01PM 42.9715 -83.8033 160° South  Level FlightAware Approximate
05:02PM 42.5981 -83.6661 168° South 171 197 5,100  Level Cleveland Center
05:04PM 42.5092 -83.6394 168° South 170 196 5,100 -300 Level Cleveland Center
05:06PM 42.4670 -83.5946 166° South  Level FlightAware Approximate
05:06PM 42.4036 -83.6175 166° South 189 217 4,000  Level Cleveland Center
05:08PM 42.3036 -83.6069 176° South 179 206 2,400 -660 Descending Cleveland Center
05:09PM 42.2603 -83.5964 170° South 160 184 2,100 -420 Descending Cleveland Center
05:10PM 42.2275 -83.5697 149° Southeast 111 128 1,600 -540 Descending Cleveland Center
05:12PM 42.2393 -83.5310 160° South  Level Estimated
05:19PM 42.2393 -83.5310 160° South  Level Estimated
05:20PM 42.2393 -83.5310 160° South  Level Estimated
05:21PM 42.2393 -83.5310 160° South  Level Estimated